createdAt,value
2023-04-14T00:01:31.558Z,9.80
2023-04-14T00:04:02.528Z,7.83
2023-04-14T00:06:29.856Z,8.17
2023-04-14T00:09:06.633Z,11.70
2023-04-14T00:11:36.748Z,10.38
2023-04-14T00:14:03.914Z,10.50
2023-04-14T00:16:31.259Z,10.10
2023-04-14T00:19:01.553Z,10.27
2023-04-14T00:21:28.717Z,10.97
2023-04-14T00:23:56.922Z,7.57
2023-04-14T00:26:24.842Z,11.13
2023-04-14T00:28:56.152Z,8.53
2023-04-14T00:31:26.597Z,10.63
2023-04-14T00:33:53.701Z,13.03
2023-04-14T00:36:20.799Z,9.87
2023-04-14T00:38:47.769Z,8.37
2023-04-14T00:41:17.590Z,9.97
2023-04-14T00:43:47.254Z,11.00
2023-04-14T00:46:19.181Z,8.97
2023-04-14T00:48:48.953Z,8.67
2023-04-14T00:51:18.696Z,6.07
2023-04-14T00:53:45.622Z,8.73
2023-04-14T00:56:24.406Z,8.80
2023-04-14T00:58:52.873Z,7.73
2023-04-14T01:01:23.147Z,9.30
2023-04-14T01:03:53.512Z,8.67
2023-04-14T01:06:21.158Z,7.53
2023-04-14T01:08:50.915Z,7.70
2023-04-14T01:11:31.123Z,8.30
2023-04-14T01:14:07.463Z,9.93
2023-04-14T01:16:42.954Z,8.57
2023-04-14T01:19:10.047Z,6.83
2023-04-14T01:21:44.294Z,9.27
2023-04-14T01:24:24.314Z,8.23
2023-04-14T01:27:05.996Z,8.13
2023-04-14T01:29:53.528Z,6.73
2023-04-14T01:32:24.000Z,9.23
2023-04-14T01:34:52.736Z,10.33
2023-04-14T01:37:30.428Z,12.80
2023-04-14T01:40:07.384Z,10.13
2023-04-14T01:42:38.280Z,9.23
2023-04-14T01:45:32.633Z,9.00
2023-04-14T01:48:10.447Z,10.43
2023-04-14T01:50:40.853Z,11.77
2023-04-14T01:53:10.221Z,7.97
2023-04-14T01:55:41.417Z,10.83
2023-04-14T01:58:12.275Z,11.10
2023-04-14T02:00:41.448Z,9.13
2023-04-14T02:03:12.066Z,12.37
2023-04-14T02:05:51.397Z,11.97
2023-04-14T02:08:23.014Z,12.33
2023-04-14T02:10:53.697Z,9.63
2023-04-14T02:13:23.010Z,8.87
2023-04-14T02:15:54.521Z,10.73
2023-04-14T02:18:28.134Z,12.00
2023-04-14T02:21:02.962Z,9.57
2023-04-14T02:23:33.060Z,10.23
2023-04-14T02:26:18.983Z,11.27
2023-04-14T02:29:01.594Z,13.07
2023-04-14T02:31:31.825Z,14.10
2023-04-14T02:34:04.364Z,12.80
2023-04-14T02:36:41.792Z,11.70
2023-04-14T02:39:21.292Z,13.90
2023-04-14T02:42:02.531Z,10.80
2023-04-14T02:44:34.603Z,8.50
2023-04-14T02:47:12.185Z,15.00
2023-04-14T02:49:43.736Z,12.93
2023-04-14T02:52:22.422Z,8.03
2023-04-14T02:54:53.477Z,11.40
2023-04-14T02:57:23.543Z,8.27
2023-04-14T02:59:52.690Z,6.83
2023-04-14T03:02:24.267Z,12.23
2023-04-14T03:04:53.665Z,9.70
2023-04-14T03:07:22.247Z,12.60
2023-04-14T03:09:55.223Z,9.73
2023-04-14T03:12:26.745Z,10.07
2023-04-14T03:14:55.271Z,10.60
2023-04-14T03:17:26.211Z,12.17
2023-04-14T03:19:56.844Z,14.83
2023-04-14T03:22:29.702Z,12.17
2023-04-14T03:24:59.192Z,13.60
2023-04-14T03:27:28.278Z,11.93
2023-04-14T03:29:58.840Z,10.10
2023-04-14T03:32:31.777Z,12.23
2023-04-14T03:35:10.556Z,9.77
2023-04-14T03:37:40.130Z,10.27
2023-04-14T03:40:11.408Z,10.53
2023-04-14T03:42:47.698Z,10.87
2023-04-14T03:45:17.505Z,14.77
2023-04-14T03:47:47.447Z,11.43
2023-04-14T03:50:17.101Z,11.27
2023-04-14T03:52:55.558Z,10.57
2023-04-14T03:55:27.186Z,11.77
2023-04-14T03:58:04.877Z,8.00
2023-04-14T04:00:32.510Z,9.87
2023-04-14T04:03:00.980Z,11.63
2023-04-14T04:05:31.554Z,8.73
2023-04-14T04:08:03.355Z,12.33
2023-04-14T04:10:34.755Z,11.07
2023-04-14T04:13:03.643Z,12.57
2023-04-14T04:15:32.774Z,10.30
2023-04-14T04:18:01.287Z,9.47
2023-04-14T04:20:35.732Z,12.17
2023-04-14T04:23:04.384Z,12.60
2023-04-14T04:25:35.831Z,9.33
2023-04-14T04:28:03.706Z,10.40
2023-04-14T04:30:39.194Z,7.67
2023-04-14T04:33:07.383Z,12.53
2023-04-14T04:35:37.582Z,16.93
2023-04-14T04:38:05.652Z,10.37
2023-04-14T04:40:39.308Z,12.47
2023-04-14T04:43:08.651Z,14.87
2023-04-14T04:45:49.408Z,11.93
2023-04-14T04:48:18.953Z,9.23
2023-04-14T04:50:45.800Z,12.50
2023-04-14T04:53:12.800Z,9.07
2023-04-14T04:55:44.013Z,10.57
2023-04-14T04:58:14.587Z,11.30
2023-04-14T05:00:41.946Z,13.57
2023-04-14T05:03:41.266Z,10.93
2023-04-14T05:06:08.857Z,13.33
2023-04-14T05:08:38.405Z,16.27
2023-04-14T05:11:06.155Z,11.67
2023-04-14T05:13:35.775Z,13.27
2023-04-14T05:16:09.705Z,12.67
2023-04-14T05:18:42.549Z,8.77
2023-04-14T05:21:13.958Z,13.60
2023-04-14T05:23:44.512Z,15.73
2023-04-14T05:26:39.064Z,11.32
2023-04-14T05:29:07.741Z,7.35
2023-04-14T05:31:34.642Z,11.52
2023-04-14T05:34:04.187Z,12.13
2023-04-14T05:36:31.260Z,10.63
2023-04-14T05:38:58.320Z,10.48
2023-04-14T05:41:25.326Z,7.85
2023-04-14T05:43:52.378Z,7.93
2023-04-14T05:46:20.242Z,12.43
2023-04-14T05:48:49.266Z,9.57
2023-04-14T05:51:16.831Z,12.35
2023-04-14T05:53:46.495Z,16.05
2023-04-14T05:56:15.998Z,9.40
2023-04-14T06:01:23.987Z,11.38
2023-04-14T06:03:53.245Z,9.50
2023-04-14T06:06:21.926Z,6.00
2023-04-14T06:08:52.017Z,8.93
2023-04-14T06:11:28.103Z,9.35
2023-04-14T06:13:54.898Z,10.07
2023-04-14T06:16:22.254Z,8.07
2023-04-14T06:18:54.549Z,8.00
2023-04-14T06:21:32.234Z,7.57
2023-04-14T06:23:59.644Z,10.35
2023-04-14T06:26:26.475Z,9.45
2023-04-14T06:28:53.915Z,8.10
2023-04-14T06:31:23.171Z,9.40
2023-04-14T06:33:53.235Z,8.75
2023-04-14T06:36:20.886Z,6.88
2023-04-14T06:38:50.335Z,6.10
2023-04-14T06:41:19.549Z,5.40
2023-04-14T06:43:46.989Z,9.68
2023-04-14T06:46:13.916Z,7.75
2023-04-14T06:48:42.982Z,8.05
2023-04-14T06:51:13.801Z,10.65
2023-04-14T06:53:40.710Z,6.00
2023-04-14T06:56:08.147Z,8.18
2023-04-14T06:58:35.257Z,8.05
2023-04-14T07:01:03.927Z,8.23
2023-04-14T07:03:34.609Z,9.20
2023-04-14T07:06:06.997Z,8.68
2023-04-14T07:08:37.088Z,12.80
2023-04-14T07:11:06.344Z,8.20
2023-04-14T07:13:34.402Z,7.95
2023-04-14T07:16:03.091Z,8.57
2023-04-14T07:18:32.005Z,8.35
2023-04-14T07:21:00.493Z,10.20
2023-04-14T07:23:27.981Z,10.32
2023-04-14T07:25:59.146Z,9.52
2023-04-14T07:28:28.255Z,12.10
2023-04-14T07:30:55.553Z,9.55
2023-04-14T07:33:25.507Z,11.82
2023-04-14T07:36:02.015Z,9.57
2023-04-14T07:38:29.811Z,7.25
2023-04-14T07:40:56.661Z,7.45
2023-04-14T07:43:24.160Z,8.70
2023-04-14T07:45:52.578Z,8.40
2023-04-14T07:48:21.772Z,7.13
2023-04-14T07:50:50.072Z,7.55
2023-04-14T07:53:21.891Z,7.47
2023-04-14T07:55:51.202Z,7.90
2023-04-14T07:58:21.624Z,8.70
2023-04-14T08:00:50.442Z,6.78
2023-04-14T08:03:17.356Z,6.00
2023-04-14T08:05:44.746Z,5.90
2023-04-14T08:08:12.477Z,6.90
2023-04-14T08:10:43.416Z,6.57
2023-04-14T08:13:12.821Z,9.82
2023-04-14T08:15:39.576Z,5.50
2023-04-14T08:18:08.768Z,10.15
2023-04-14T08:20:35.379Z,5.60
2023-04-14T08:23:02.137Z,7.53
2023-04-14T08:25:28.764Z,6.40
2023-04-14T08:27:55.333Z,9.27
2023-04-14T08:30:24.541Z,8.90
2023-04-14T08:32:51.286Z,6.00
2023-04-14T08:35:36.880Z,5.13
2023-04-14T08:38:05.037Z,9.38
2023-04-14T08:40:43.242Z,4.88
2023-04-14T08:43:13.134Z,9.07
2023-04-14T08:45:44.324Z,6.97
2023-04-14T08:48:16.362Z,7.55
2023-04-14T08:50:54.358Z,8.90
2023-04-14T08:53:27.837Z,6.32
2023-04-14T08:55:58.094Z,5.13
2023-04-14T08:58:26.447Z,5.03
2023-04-14T09:00:54.277Z,5.75
2023-04-14T09:03:24.289Z,7.65
2023-04-14T09:05:55.767Z,4.30
2023-04-14T09:08:26.680Z,5.70
2023-04-14T09:10:54.692Z,6.43
2023-04-14T09:13:24.484Z,5.05
2023-04-14T09:15:53.161Z,9.88
2023-04-14T09:18:23.120Z,7.05
2023-04-14T09:21:50.379Z,4.22
2023-04-14T09:23:42.741Z,7.00
2023-04-14T09:26:11.079Z,6.78
2023-04-14T09:28:39.254Z,5.45
2023-04-14T09:31:09.169Z,6.75
2023-04-14T09:33:52.042Z,4.75
2023-04-14T09:36:27.527Z,4.22
2023-04-14T09:38:54.570Z,3.45
2023-04-14T09:41:23.426Z,8.65
2023-04-14T09:43:51.061Z,5.63
2023-04-14T09:46:17.925Z,5.75
2023-04-14T09:48:56.100Z,5.80
2023-04-14T09:51:33.286Z,4.88
2023-04-14T09:54:05.536Z,4.05
2023-04-14T09:56:32.908Z,3.90
2023-04-14T09:59:02.168Z,5.00
2023-04-14T10:01:36.768Z,5.65
2023-04-14T10:04:03.763Z,5.68
2023-04-14T10:06:33.995Z,7.95
2023-04-14T10:09:01.884Z,3.60
2023-04-14T10:11:35.370Z,5.45
2023-04-14T10:14:04.526Z,5.63
2023-04-14T10:16:32.447Z,4.70
2023-04-14T10:19:31.461Z,3.60
2023-04-14T10:21:49.236Z,3.00
2023-04-14T10:24:19.869Z,5.28
2023-04-14T10:26:50.313Z,8.93
2023-04-14T10:29:18.555Z,3.92
2023-04-14T10:31:56.328Z,8.45
2023-04-14T10:34:25.325Z,6.95
2023-04-14T10:36:52.084Z,6.72
2023-04-14T10:39:25.270Z,4.30
2023-04-14T10:41:53.068Z,5.03
2023-04-14T10:44:22.994Z,2.90
2023-04-14T10:46:50.132Z,7.72
2023-04-14T10:49:16.994Z,5.55
2023-04-14T10:51:44.847Z,4.18
2023-04-14T10:54:21.641Z,3.33
2023-04-14T10:57:12.527Z,4.40
2023-04-14T10:59:43.412Z,5.45
2023-04-14T11:02:31.250Z,3.55
2023-04-14T11:05:11.340Z,5.47
2023-04-14T11:07:45.545Z,4.43
2023-04-14T11:10:24.158Z,5.20
2023-04-14T11:13:06.959Z,5.00
2023-04-14T11:16:04.070Z,4.75
2023-04-14T11:18:31.138Z,6.35
2023-04-14T11:21:12.029Z,5.13
2023-04-14T11:23:39.038Z,3.85
2023-04-14T11:26:07.013Z,3.28
2023-04-14T11:28:36.484Z,5.47
2023-04-14T11:31:06.129Z,2.72
2023-04-14T11:33:37.600Z,5.10
2023-04-14T11:36:06.421Z,3.53
2023-04-14T11:38:36.220Z,4.82
2023-04-14T11:41:03.869Z,3.30
2023-04-14T11:43:33.261Z,4.75
2023-04-14T11:46:04.804Z,2.15
2023-04-14T11:48:31.745Z,4.82
2023-04-14T11:51:03.884Z,3.55
2023-04-14T11:53:31.437Z,3.75
2023-04-14T11:56:01.035Z,2.15
2023-04-14T11:58:29.058Z,3.13
2023-04-14T12:00:57.745Z,5.25
2023-04-14T12:03:29.207Z,3.55
2023-04-14T12:06:01.546Z,3.80
2023-04-14T12:08:33.163Z,2.95
2023-04-14T12:11:16.531Z,4.80
2023-04-14T12:13:45.209Z,5.80
2023-04-14T12:16:14.490Z,2.25
2023-04-14T12:18:51.391Z,2.95
2023-04-14T12:21:19.688Z,4.57
2023-04-14T12:23:50.659Z,4.93
2023-04-14T12:26:17.538Z,5.97
2023-04-14T12:28:45.130Z,6.10
2023-04-14T12:31:13.436Z,4.63
2023-04-14T12:33:46.414Z,2.85
2023-04-14T12:36:17.166Z,5.18
2023-04-14T12:38:50.505Z,4.32
2023-04-14T12:41:27.945Z,5.18
2023-04-14T12:43:56.073Z,5.85
2023-04-14T12:46:27.624Z,3.33
2023-04-14T12:48:54.474Z,5.05
2023-04-14T12:51:25.238Z,4.55
2023-04-14T12:54:11.154Z,3.58
2023-04-14T12:56:43.707Z,10.40
2023-04-14T12:59:11.504Z,5.38
2023-04-14T13:01:38.529Z,5.45
2023-04-14T13:04:17.409Z,5.07
2023-04-14T13:06:54.632Z,5.00
2023-04-14T13:09:22.560Z,3.25
2023-04-14T13:11:52.608Z,5.95
2023-04-14T13:14:22.386Z,3.25
2023-04-14T13:16:49.529Z,6.25
2023-04-14T13:19:16.719Z,3.65
2023-04-14T13:21:44.110Z,5.28
2023-04-14T13:24:13.538Z,8.40
2023-04-14T13:26:40.957Z,2.97
2023-04-14T13:29:08.563Z,5.15
2023-04-14T13:31:36.869Z,3.15
2023-04-14T13:34:07.107Z,4.60
2023-04-14T13:36:33.788Z,3.53
2023-04-14T13:39:07.641Z,6.88
2023-04-14T13:41:34.349Z,8.50
2023-04-14T13:44:01.841Z,3.40
2023-04-14T13:46:29.586Z,5.95
2023-04-14T13:48:59.666Z,5.75
2023-04-14T13:51:32.276Z,2.83
2023-04-14T13:54:01.134Z,4.05
2023-04-14T13:56:28.229Z,4.90
2023-04-14T13:58:55.067Z,3.63
2023-04-14T14:01:24.652Z,5.18
2023-04-14T14:03:51.677Z,4.68
2023-04-14T14:06:19.542Z,3.55
2023-04-14T14:08:46.181Z,3.47
2023-04-14T14:11:12.934Z,4.65
2023-04-14T14:13:41.803Z,5.00
2023-04-14T14:16:11.157Z,2.95
2023-04-14T14:18:38.429Z,5.78
2023-04-14T14:21:05.369Z,7.00
2023-04-14T14:23:32.488Z,2.95
2023-04-14T14:25:59.136Z,3.35
2023-04-14T14:28:26.351Z,3.72
2023-04-14T14:30:52.912Z,2.45
2023-04-14T14:33:19.582Z,5.72
2023-04-14T14:35:46.250Z,7.57
2023-04-14T14:38:12.807Z,2.47
2023-04-14T14:40:39.715Z,6.13
2023-04-14T14:43:11.085Z,6.38
2023-04-14T14:45:41.080Z,4.85
2023-04-14T14:48:11.730Z,3.65
2023-04-14T14:50:40.762Z,3.58
2023-04-14T14:53:07.432Z,3.25
2023-04-14T14:55:36.279Z,4.25
2023-04-14T14:58:04.109Z,6.22
2023-04-14T15:00:30.866Z,6.53
2023-04-14T15:02:57.932Z,4.93
2023-04-14T15:05:29.764Z,3.88
2023-04-14T15:07:56.408Z,9.48
2023-04-14T15:10:23.220Z,1.50
2023-04-14T15:12:49.877Z,5.72
2023-04-14T15:15:19.865Z,3.72
2023-04-14T15:17:46.774Z,4.70
2023-04-14T15:20:13.512Z,2.72
2023-04-14T15:22:42.566Z,3.40
2023-04-14T15:25:09.588Z,1.73
2023-04-14T15:27:38.914Z,6.15
2023-04-14T15:30:06.284Z,4.60
2023-04-14T15:32:32.932Z,6.10
2023-04-14T15:34:59.777Z,3.55
2023-04-14T15:37:28.749Z,4.28
2023-04-14T15:39:55.679Z,4.63
2023-04-14T15:42:24.536Z,3.53
2023-04-14T15:44:51.421Z,3.97
2023-04-14T15:47:18.470Z,1.45
2023-04-14T15:49:50.045Z,2.47
2023-04-14T15:52:22.599Z,5.18
2023-04-14T15:54:49.539Z,4.47
2023-04-14T15:57:21.321Z,6.85
2023-04-14T15:59:47.943Z,3.28
2023-04-14T16:02:15.046Z,2.42
2023-04-14T16:04:44.453Z,4.22
2023-04-14T16:07:13.712Z,3.55
2023-04-14T16:09:40.498Z,6.53
2023-04-14T16:12:07.152Z,5.32
2023-04-14T16:14:35.153Z,5.00
2023-04-14T16:17:04.154Z,6.05
2023-04-14T16:19:33.106Z,6.07
2023-04-14T16:21:59.716Z,3.40
2023-04-14T16:24:26.696Z,5.47
2023-04-14T16:26:53.319Z,4.95
2023-04-14T16:29:22.234Z,6.85
2023-04-14T16:31:48.969Z,8.40
2023-04-14T16:34:15.692Z,5.30
2023-04-14T16:36:42.381Z,5.43
2023-04-14T16:39:09.308Z,4.07
2023-04-14T16:41:36.211Z,4.03
2023-04-14T16:44:03.292Z,6.72
2023-04-14T16:46:30.358Z,5.38
2023-04-14T16:48:57.254Z,5.28
2023-04-14T16:51:26.909Z,4.43
2023-04-14T16:53:53.609Z,5.68
2023-04-14T16:56:20.828Z,6.82
2023-04-14T16:58:47.473Z,5.93
2023-04-14T17:01:14.141Z,7.13
2023-04-14T17:03:41.031Z,6.95
2023-04-14T17:06:07.887Z,3.70
2023-04-14T17:08:39.622Z,5.68
2023-04-14T17:11:06.433Z,3.10
2023-04-14T17:13:33.639Z,7.43
2023-04-14T17:16:08.488Z,3.10
2023-04-14T17:18:36.046Z,4.00
2023-04-14T17:21:02.950Z,6.63
2023-04-14T17:23:31.903Z,7.57
2023-04-14T17:25:58.785Z,4.13
2023-04-14T17:28:26.839Z,7.53
2023-04-14T17:30:55.764Z,4.43
2023-04-14T17:33:22.580Z,5.68
2023-04-14T17:35:49.350Z,7.47
2023-04-14T17:38:15.938Z,11.48
2023-04-14T17:40:42.542Z,7.03
2023-04-14T17:43:11.546Z,5.35
2023-04-14T17:45:40.093Z,4.95
2023-04-14T17:48:10.446Z,5.50
2023-04-14T17:50:39.983Z,6.45
2023-04-14T17:53:07.009Z,6.50
2023-04-14T17:55:33.746Z,7.30
2023-04-14T17:58:02.771Z,4.47
2023-04-14T18:00:29.475Z,5.82
2023-04-14T18:02:58.524Z,6.63
2023-04-14T18:05:27.951Z,7.45
2023-04-14T18:07:57.238Z,4.82
2023-04-14T18:10:24.870Z,5.35
2023-04-14T18:12:52.041Z,4.85
2023-04-14T18:15:19.807Z,9.63
2023-04-14T18:17:46.916Z,6.03
2023-04-14T18:20:14.585Z,9.40
2023-04-14T18:22:43.698Z,4.65
2023-04-14T18:25:10.402Z,6.80
2023-04-14T18:30:12.369Z,11.40
2023-04-14T18:32:39.031Z,6.13
2023-04-14T18:35:06.480Z,9.35
2023-04-14T18:37:33.346Z,12.05
2023-04-14T18:40:00.155Z,5.45
2023-04-14T18:42:28.870Z,7.15
2023-04-14T18:44:59.991Z,5.68
2023-04-14T18:47:26.854Z,8.65
2023-04-14T18:49:55.599Z,9.43
2023-04-14T18:52:22.194Z,12.45
2023-04-14T18:54:52.031Z,7.88
2023-04-14T18:57:18.720Z,9.50
2023-04-14T18:59:45.765Z,9.75
2023-04-14T19:02:14.708Z,8.80
2023-04-14T19:04:43.827Z,11.85
2023-04-14T19:07:10.674Z,10.25
2023-04-14T19:09:40.358Z,10.73
2023-04-14T19:12:21.762Z,7.35
2023-04-14T19:14:57.050Z,10.18
2023-04-14T19:17:26.098Z,7.88
2023-04-14T19:19:57.889Z,9.25
2023-04-14T19:22:24.979Z,7.20
2023-04-14T19:24:51.638Z,5.65
2023-04-14T19:27:20.965Z,5.35
2023-04-14T19:29:50.378Z,5.47
2023-04-14T19:32:17.060Z,8.52
2023-04-14T19:34:46.488Z,6.53
2023-04-14T19:37:13.614Z,8.20
2023-04-14T19:39:40.464Z,12.02
2023-04-14T19:42:07.037Z,8.48
2023-04-14T19:44:35.419Z,8.70
2023-04-14T19:47:02.546Z,7.93
2023-04-14T19:49:29.455Z,8.43
2023-04-14T19:51:56.170Z,5.88
2023-04-14T19:54:27.929Z,10.27
2023-04-14T19:56:54.598Z,7.03
2023-04-14T19:59:23.876Z,10.52
2023-04-14T20:01:51.590Z,10.25
2023-04-14T20:04:20.801Z,11.50
2023-04-14T20:06:50.612Z,7.35
2023-04-14T20:09:17.177Z,6.70
2023-04-14T20:11:43.872Z,7.05
2023-04-14T20:14:10.775Z,6.88
2023-04-14T20:16:38.642Z,7.05
2023-04-14T20:19:07.944Z,7.60
2023-04-14T20:21:35.057Z,8.95
2023-04-14T20:24:04.659Z,10.10
2023-04-14T20:26:31.372Z,11.18
2023-04-14T20:28:58.376Z,7.82
2023-04-14T20:31:27.552Z,10.88
2023-04-14T20:33:54.622Z,7.32
2023-04-14T20:36:23.891Z,10.40
2023-04-14T20:38:50.807Z,6.97
2023-04-14T20:41:20.750Z,9.75
2023-04-14T20:43:47.492Z,8.15
2023-04-14T20:46:14.654Z,9.25
2023-04-14T20:48:42.315Z,10.10
2023-04-14T20:51:09.207Z,10.30
2023-04-14T20:53:35.980Z,6.30
2023-04-14T20:56:04.875Z,7.00
2023-04-14T20:58:33.991Z,6.03
2023-04-14T21:01:02.827Z,7.95
2023-04-14T21:03:31.344Z,7.70
2023-04-14T21:06:03.790Z,4.63
2023-04-14T21:08:30.932Z,7.80
2023-04-14T21:11:16.225Z,6.55
2023-04-14T21:15:40.239Z,6.30
2023-04-14T21:16:35.860Z,8.55
2023-04-14T21:19:04.314Z,5.63
2023-04-14T21:21:31.955Z,7.95
2023-04-14T21:23:59.127Z,6.47
2023-04-14T21:26:28.638Z,7.30
2023-04-14T21:28:57.962Z,6.10
2023-04-14T21:31:27.909Z,7.45
2023-04-14T21:33:54.942Z,9.75
2023-04-14T21:36:24.679Z,9.07
2023-04-14T21:38:51.756Z,7.55
2023-04-14T21:41:23.067Z,15.13
2023-04-14T21:43:52.401Z,7.45
2023-04-14T21:46:21.565Z,7.28
2023-04-14T21:48:48.589Z,7.47
2023-04-14T21:51:18.745Z,9.82
2023-04-14T21:53:46.366Z,12.55
2023-04-14T21:56:14.557Z,7.28
2023-04-14T21:58:44.075Z,5.40
2023-04-14T22:01:11.310Z,8.10
2023-04-14T22:03:44.947Z,8.07
2023-04-14T22:06:12.063Z,8.40
2023-04-14T22:08:40.472Z,9.20
2023-04-14T22:11:09.994Z,5.13
2023-04-14T22:13:36.894Z,9.18
2023-04-14T22:16:03.941Z,5.35
2023-04-14T22:18:32.918Z,7.00
2023-04-14T22:21:02.455Z,6.60
2023-04-14T22:23:29.383Z,7.53
2023-04-14T22:25:58.363Z,8.60
2023-04-14T22:28:25.106Z,8.52
2023-04-14T22:30:51.976Z,8.52
2023-04-14T22:33:18.920Z,9.80
2023-04-14T22:35:45.636Z,11.00
2023-04-14T22:38:12.428Z,7.55
2023-04-14T22:40:39.095Z,9.85
2023-04-14T22:43:08.937Z,9.70
2023-04-14T22:45:37.481Z,11.30
2023-04-14T22:48:11.949Z,10.07
2023-04-14T22:50:39.363Z,10.38
2023-04-14T22:53:06.722Z,7.93
2023-04-14T22:55:36.215Z,8.18
2023-04-14T22:58:05.597Z,12.20
2023-04-14T23:00:32.295Z,9.35
2023-04-14T23:02:59.864Z,7.05
2023-04-14T23:05:26.679Z,9.85
2023-04-14T23:07:53.291Z,15.27
2023-04-14T23:10:20.358Z,10.80
2023-04-14T23:12:47.076Z,7.72
2023-04-14T23:15:13.756Z,12.35
2023-04-14T23:17:42.958Z,9.18
2023-04-14T23:20:10.138Z,8.00
2023-04-14T23:22:36.925Z,11.73
2023-04-14T23:25:03.784Z,11.25
2023-04-14T23:27:30.615Z,17.98
2023-04-14T23:29:57.458Z,10.25
2023-04-14T23:32:24.326Z,9.30
2023-04-14T23:34:53.201Z,10.95
2023-04-14T23:37:22.487Z,16.20
2023-04-14T23:39:49.423Z,9.15
2023-04-14T23:42:16.219Z,9.55
2023-04-14T23:44:43.061Z,7.18
2023-04-14T23:47:10.480Z,8.45
2023-04-14T23:49:37.380Z,15.10
2023-04-14T23:52:04.829Z,11.88
2023-04-14T23:54:31.826Z,17.75
2023-04-14T23:56:58.554Z,12.13
2023-04-14T23:59:25.313Z,8.32
